createdAt,value
2023-05-06T00:00:08.485Z,2.40
2023-05-06T00:02:42.683Z,2.30
2023-05-06T00:05:12.102Z,2.33
2023-05-06T00:07:43.737Z,2.03
2023-05-06T00:10:13.357Z,2.63
2023-05-06T00:12:42.115Z,2.38
2023-05-06T00:15:08.947Z,2.22
2023-05-06T00:17:35.709Z,2.72
2023-05-06T00:20:05.223Z,2.25
2023-05-06T00:22:31.655Z,2.33
2023-05-06T00:24:58.085Z,2.15
2023-05-06T00:27:26.988Z,2.30
2023-05-06T00:29:54.075Z,2.63
2023-05-06T00:32:23.191Z,2.45
2023-05-06T00:34:50.800Z,2.10
2023-05-06T00:37:17.310Z,2.00
2023-05-06T00:39:46.028Z,1.95
2023-05-06T00:42:15.064Z,2.22
2023-05-06T00:44:44.001Z,1.92
2023-05-06T00:47:13.093Z,2.10
2023-05-06T00:49:39.644Z,1.88
2023-05-06T00:52:08.766Z,2.40
2023-05-06T00:54:37.753Z,1.85
2023-05-06T00:57:06.753Z,2.25
2023-05-06T00:59:35.623Z,2.47
2023-05-06T01:02:02.260Z,2.08
2023-05-06T01:04:31.282Z,2.03
2023-05-06T01:07:11.858Z,2.63
2023-05-06T01:09:49.677Z,2.10
2023-05-06T01:12:19.214Z,2.15
2023-05-06T01:15:06.529Z,2.63
2023-05-06T01:17:39.937Z,2.42
2023-05-06T01:20:11.828Z,2.30
2023-05-06T01:22:38.684Z,1.83
2023-05-06T01:25:05.860Z,2.33
2023-05-06T01:27:32.321Z,2.38
2023-05-06T01:30:01.866Z,2.13
2023-05-06T01:32:28.354Z,2.05
2023-05-06T01:34:57.883Z,2.40
2023-05-06T01:37:43.270Z,2.50
2023-05-06T01:40:12.718Z,2.55
2023-05-06T01:42:44.544Z,2.97
2023-05-06T01:45:11.570Z,2.00
2023-05-06T01:47:42.025Z,2.15
2023-05-06T01:50:14.103Z,2.10
2023-05-06T01:52:42.860Z,2.47
2023-05-06T01:55:11.995Z,2.33
2023-05-06T01:57:39.295Z,2.10
2023-05-06T02:00:09.664Z,2.58
2023-05-06T02:02:38.849Z,2.53
2023-05-06T02:05:06.161Z,2.75
2023-05-06T02:07:33.530Z,2.50
2023-05-06T02:10:00.178Z,2.33
2023-05-06T02:12:31.301Z,2.40
2023-05-06T02:15:00.197Z,2.42
2023-05-06T02:17:29.321Z,2.33
2023-05-06T02:19:59.132Z,2.10
2023-05-06T02:22:25.624Z,2.33
2023-05-06T02:24:52.147Z,2.63
2023-05-06T02:27:23.210Z,2.35
2023-05-06T02:29:52.427Z,2.67
2023-05-06T02:32:22.078Z,2.33
2023-05-06T02:34:48.569Z,2.17
2023-05-06T02:37:17.378Z,2.58
2023-05-06T02:39:43.937Z,2.20
2023-05-06T02:42:17.368Z,2.10
2023-05-06T02:44:49.267Z,2.40
2023-05-06T02:47:17.886Z,2.53
2023-05-06T02:49:46.736Z,2.45
2023-05-06T02:52:17.736Z,2.72
2023-05-06T02:54:44.186Z,3.13
2023-05-06T02:57:15.246Z,2.25
2023-05-06T02:59:44.210Z,2.63
2023-05-06T03:02:10.735Z,2.25
2023-05-06T03:04:37.267Z,2.65
2023-05-06T03:07:06.207Z,2.95
2023-05-06T03:09:33.508Z,2.83
2023-05-06T03:11:59.970Z,2.40
2023-05-06T03:14:26.730Z,2.70
2023-05-06T03:16:56.014Z,2.45
2023-05-06T03:19:28.082Z,3.85
2023-05-06T03:21:54.625Z,2.40
2023-05-06T03:24:21.131Z,2.47
2023-05-06T03:26:51.234Z,2.58
2023-05-06T03:29:20.201Z,2.70
2023-05-06T03:31:51.812Z,2.45
2023-05-06T03:34:22.085Z,2.50
2023-05-06T03:36:48.616Z,2.58
2023-05-06T03:39:22.821Z,2.58
2023-05-06T03:41:51.926Z,2.55
2023-05-06T03:44:20.963Z,2.47
2023-05-06T03:46:53.068Z,2.30
2023-05-06T03:49:20.780Z,2.33
2023-05-06T03:51:53.456Z,2.33
2023-05-06T03:54:24.021Z,2.20
2023-05-06T03:56:52.977Z,2.13
2023-05-06T03:59:21.992Z,2.55
2023-05-06T04:01:48.988Z,2.60
2023-05-06T04:04:16.846Z,2.53
2023-05-06T04:06:48.208Z,2.50
2023-05-06T04:09:17.192Z,2.03
2023-05-06T04:11:43.891Z,2.20
2023-05-06T04:14:19.982Z,2.25
2023-05-06T04:16:56.025Z,2.55
2023-05-06T04:19:26.866Z,2.10
2023-05-06T04:22:01.370Z,2.67
2023-05-06T04:24:31.342Z,2.20
2023-05-06T04:26:58.519Z,2.35
2023-05-06T04:29:27.905Z,2.33
2023-05-06T04:31:59.067Z,2.10
2023-05-06T04:34:30.452Z,2.28
2023-05-06T04:37:03.743Z,2.42
2023-05-06T04:39:47.174Z,2.28
2023-05-06T04:42:16.792Z,2.60
2023-05-06T04:44:51.174Z,3.35
2023-05-06T04:47:25.037Z,2.72
2023-05-06T04:49:52.808Z,2.65
2023-05-06T04:52:25.510Z,3.03
2023-05-06T04:54:59.257Z,2.90
2023-05-06T04:57:32.909Z,2.70
2023-05-06T04:59:59.559Z,3.22
2023-05-06T05:02:28.247Z,3.45
2023-05-06T05:04:54.816Z,2.70
2023-05-06T05:07:24.481Z,4.15
2023-05-06T05:09:53.564Z,3.22
2023-05-06T05:12:22.560Z,3.28
2023-05-06T05:14:55.208Z,3.10
2023-05-06T05:17:22.384Z,2.58
2023-05-06T05:19:50.193Z,3.60
2023-05-06T05:22:19.869Z,3.60
2023-05-06T05:24:49.234Z,2.80
2023-05-06T05:27:20.703Z,2.50
2023-05-06T05:29:47.285Z,2.38
2023-05-06T05:32:16.506Z,2.85
2023-05-06T05:34:45.609Z,2.97
2023-05-06T05:37:14.609Z,2.88
2023-05-06T05:39:43.622Z,3.22
2023-05-06T05:42:19.706Z,2.75
2023-05-06T05:47:16.516Z,2.53
2023-05-06T05:49:45.580Z,2.88
2023-05-06T05:52:15.713Z,2.40
2023-05-06T05:54:44.815Z,3.00
2023-05-06T05:57:11.655Z,2.60
2023-05-06T05:59:41.556Z,2.60
2023-05-06T06:02:13.901Z,2.63
2023-05-06T06:04:43.119Z,2.63
2023-05-06T06:07:12.545Z,2.30
2023-05-06T06:09:46.776Z,3.05
2023-05-06T06:12:15.057Z,2.70
2023-05-06T06:14:48.538Z,2.67
2023-05-06T06:17:18.173Z,3.03
2023-05-06T06:19:51.144Z,3.13
2023-05-06T06:22:20.363Z,2.70
2023-05-06T06:24:49.237Z,3.22
2023-05-06T06:27:19.158Z,4.22
2023-05-06T06:29:49.862Z,3.60
2023-05-06T06:32:21.410Z,3.28
2023-05-06T06:34:47.972Z,3.15
2023-05-06T06:37:16.769Z,2.88
2023-05-06T06:39:45.775Z,2.95
2023-05-06T06:42:17.209Z,2.58
2023-05-06T06:44:58.315Z,3.60
2023-05-06T06:47:32.688Z,3.15
2023-05-06T06:50:07.072Z,2.47
2023-05-06T06:52:36.702Z,3.45
2023-05-06T06:55:05.822Z,2.60
2023-05-06T06:57:37.122Z,2.92
2023-05-06T07:00:04.286Z,2.35
2023-05-06T07:02:33.277Z,3.22
2023-05-06T07:04:59.786Z,2.65
2023-05-06T07:07:28.744Z,2.30
2023-05-06T07:09:59.994Z,2.38
2023-05-06T07:12:28.517Z,2.45
2023-05-06T07:14:57.509Z,2.30
2023-05-06T07:17:26.313Z,2.40
2023-05-06T07:19:52.806Z,1.90
2023-05-06T07:22:19.463Z,2.10
2023-05-06T07:24:46.104Z,1.95
2023-05-06T07:27:12.626Z,2.08
2023-05-06T07:29:39.171Z,1.98
2023-05-06T07:32:08.174Z,2.42
2023-05-06T07:34:36.041Z,2.20
2023-05-06T07:37:08.172Z,2.30
2023-05-06T07:39:39.169Z,1.80
2023-05-06T07:42:05.759Z,2.28
2023-05-06T07:44:32.253Z,2.28
2023-05-06T07:47:03.766Z,1.92
2023-05-06T07:49:34.118Z,2.80
2023-05-06T07:52:03.529Z,2.00
2023-05-06T07:54:34.876Z,2.30
2023-05-06T07:57:03.555Z,2.53
2023-05-06T07:59:32.470Z,2.78
2023-05-06T08:02:01.516Z,2.30
2023-05-06T08:04:30.579Z,2.05
2023-05-06T08:07:01.993Z,2.00
2023-05-06T08:09:28.654Z,1.92
2023-05-06T08:11:59.868Z,2.03
2023-05-06T08:14:26.760Z,2.35
2023-05-06T08:16:58.232Z,2.00
2023-05-06T08:19:27.248Z,2.15
2023-05-06T08:21:56.109Z,2.08
2023-05-06T08:24:22.520Z,2.22
2023-05-06T08:26:48.977Z,2.08
2023-05-06T08:29:17.790Z,2.08
2023-05-06T08:31:44.336Z,1.95
2023-05-06T08:34:18.434Z,1.85
2023-05-06T08:36:45.289Z,1.65
2023-05-06T08:39:17.251Z,1.50
2023-05-06T08:41:47.833Z,1.52
2023-05-06T08:44:20.924Z,1.45
2023-05-06T08:46:50.443Z,1.30
2023-05-06T08:49:17.061Z,1.50
2023-05-06T08:51:44.399Z,1.17
2023-05-06T08:54:14.343Z,1.55
2023-05-06T08:56:45.927Z,1.30
2023-05-06T08:59:13.830Z,1.40
2023-05-06T09:01:43.031Z,1.40
2023-05-06T09:04:18.390Z,1.40
2023-05-06T09:06:47.478Z,1.52
2023-05-06T09:09:14.886Z,2.20
2023-05-06T09:11:48.210Z,2.45
2023-05-06T09:14:15.585Z,1.80
2023-05-06T09:16:43.860Z,2.63
2023-05-06T09:19:10.528Z,1.85
2023-05-06T09:21:38.109Z,1.92
2023-05-06T09:24:06.018Z,1.90
2023-05-06T09:26:35.940Z,1.70
2023-05-06T09:29:05.577Z,2.03
2023-05-06T09:31:40.975Z,1.98
2023-05-06T09:34:12.445Z,1.73
2023-05-06T09:36:41.355Z,2.38
2023-05-06T09:39:08.501Z,2.22
2023-05-06T09:41:35.391Z,2.42
2023-05-06T09:44:02.013Z,2.00
2023-05-06T09:46:29.260Z,2.35
2023-05-06T09:48:56.420Z,2.00
2023-05-06T09:51:28.599Z,1.83
2023-05-06T09:54:00.407Z,2.83
2023-05-06T09:56:27.271Z,1.60
2023-05-06T09:58:56.614Z,1.50
2023-05-06T10:01:36.197Z,2.13
2023-05-06T10:04:09.115Z,1.70
2023-05-06T10:06:41.289Z,1.63
2023-05-06T10:09:12.981Z,1.88
2023-05-06T10:11:44.353Z,1.40
2023-05-06T10:14:13.291Z,1.85
2023-05-06T10:16:40.483Z,1.98
2023-05-06T10:19:10.045Z,2.75
2023-05-06T10:21:41.594Z,2.28
2023-05-06T10:24:11.806Z,2.17
2023-05-06T10:26:39.116Z,2.00
2023-05-06T10:29:09.280Z,2.13
2023-05-06T10:31:37.072Z,2.20
2023-05-06T10:34:07.662Z,2.20
2023-05-06T10:36:37.359Z,2.47
2023-05-06T10:39:07.390Z,2.30
2023-05-06T10:41:37.100Z,2.03
2023-05-06T10:44:03.746Z,1.85
2023-05-06T10:46:51.440Z,1.80
2023-05-06T10:49:20.892Z,2.38
2023-05-06T10:52:28.453Z,1.80
2023-05-06T10:54:57.348Z,2.13
2023-05-06T10:57:27.409Z,1.92
2023-05-06T10:59:56.822Z,1.88
2023-05-06T11:02:30.108Z,1.70
2023-05-06T11:05:04.723Z,1.75
2023-05-06T11:07:33.531Z,1.40
2023-05-06T11:10:05.216Z,1.88
2023-05-06T11:12:51.469Z,1.65
2023-05-06T11:15:38.185Z,1.65
2023-05-06T11:18:23.353Z,1.75
2023-05-06T11:20:50.946Z,1.90
2023-05-06T11:23:19.058Z,1.92
2023-05-06T11:25:48.126Z,2.00
2023-05-06T11:28:18.574Z,1.88
2023-05-06T11:30:53.617Z,1.98
2023-05-06T11:33:22.204Z,1.75
2023-05-06T11:35:51.133Z,1.80
2023-05-06T11:38:19.692Z,1.77
2023-05-06T11:40:46.178Z,2.03
2023-05-06T11:43:16.420Z,1.80
2023-05-06T11:45:42.913Z,1.60
2023-05-06T11:48:13.795Z,2.53
2023-05-06T11:50:44.103Z,1.90
2023-05-06T11:53:15.937Z,1.83
2023-05-06T11:55:42.964Z,1.60
2023-05-06T11:58:19.110Z,1.50
2023-05-06T12:00:56.596Z,1.67
2023-05-06T12:03:24.136Z,1.60
2023-05-06T12:05:53.685Z,2.20
2023-05-06T12:08:28.303Z,1.65
2023-05-06T12:11:02.423Z,1.60
2023-05-06T12:13:31.962Z,1.75
2023-05-06T12:16:01.514Z,2.30
2023-05-06T12:18:30.539Z,1.75
2023-05-06T12:20:57.384Z,1.73
2023-05-06T12:23:29.129Z,1.35
2023-05-06T12:26:02.408Z,1.75
2023-05-06T12:28:32.335Z,1.45
2023-05-06T12:30:58.845Z,1.65
2023-05-06T12:33:30.147Z,1.70
2023-05-06T12:36:08.247Z,1.58
2023-05-06T12:38:34.924Z,1.60
2023-05-06T12:41:01.387Z,1.63
2023-05-06T12:43:30.824Z,1.52
2023-05-06T12:46:04.862Z,1.77
2023-05-06T12:48:36.388Z,1.55
2023-05-06T12:51:20.852Z,1.73
2023-05-06T12:53:47.452Z,2.00
2023-05-06T12:56:13.930Z,1.95
2023-05-06T12:58:45.679Z,1.90
2023-05-06T13:01:12.258Z,1.50
2023-05-06T13:03:41.702Z,1.75
2023-05-06T13:06:11.349Z,1.67
2023-05-06T13:08:38.234Z,1.67
2023-05-06T13:11:09.749Z,1.60
2023-05-06T13:13:36.280Z,1.42
2023-05-06T13:16:04.940Z,1.75
2023-05-06T13:18:33.552Z,1.77
2023-05-06T13:21:00.678Z,1.60
2023-05-06T13:23:34.992Z,1.60
2023-05-06T13:26:06.740Z,2.00
2023-05-06T13:28:33.674Z,1.52
2023-05-06T13:31:00.257Z,1.63
2023-05-06T13:33:28.009Z,1.50
2023-05-06T13:35:54.911Z,1.77
2023-05-06T13:38:23.736Z,1.50
2023-05-06T13:40:53.147Z,2.00
2023-05-06T13:43:22.034Z,1.92
2023-05-06T13:45:53.449Z,1.88
2023-05-06T13:48:19.918Z,2.10
2023-05-06T13:50:51.138Z,2.03
2023-05-06T13:53:17.612Z,2.28
2023-05-06T13:55:47.001Z,2.28
2023-05-06T13:58:13.459Z,2.17
2023-05-06T14:00:39.947Z,2.15
2023-05-06T14:03:06.629Z,2.50
2023-05-06T14:05:35.498Z,2.40
2023-05-06T14:08:04.612Z,2.30
2023-05-06T14:10:38.523Z,1.88
2023-05-06T14:13:06.953Z,2.05
2023-05-06T14:15:33.944Z,1.92
2023-05-06T14:18:00.951Z,2.28
2023-05-06T14:20:29.764Z,2.38
2023-05-06T14:22:58.900Z,2.10
2023-05-06T14:25:28.191Z,2.22
2023-05-06T14:27:56.944Z,1.98
2023-05-06T14:30:24.551Z,2.03
2023-05-06T14:32:51.424Z,1.83
2023-05-06T14:35:20.768Z,1.80
2023-05-06T14:37:51.830Z,1.73
2023-05-06T14:40:22.776Z,2.13
2023-05-06T14:42:49.664Z,1.80
2023-05-06T14:45:18.618Z,1.98
2023-05-06T14:47:45.347Z,1.98
2023-05-06T14:50:15.430Z,2.15
2023-05-06T14:52:41.945Z,2.13
2023-05-06T14:55:09.571Z,2.03
2023-05-06T14:57:36.532Z,1.88
2023-05-06T15:00:09.916Z,1.80
2023-05-06T15:02:38.035Z,1.80
2023-05-06T15:05:04.814Z,2.00
2023-05-06T15:07:31.419Z,1.80
2023-05-06T15:10:00.551Z,2.10
2023-05-06T15:12:29.419Z,1.70
2023-05-06T15:14:58.171Z,2.10
2023-05-06T15:17:27.082Z,1.77
2023-05-06T15:19:58.253Z,1.90
2023-05-06T15:22:30.039Z,1.70
2023-05-06T15:24:59.083Z,2.17
2023-05-06T15:27:30.718Z,1.63
2023-05-06T15:30:04.130Z,1.48
2023-05-06T15:32:31.419Z,2.05
2023-05-06T15:34:58.016Z,1.58
2023-05-06T15:37:26.618Z,1.63
2023-05-06T15:39:57.963Z,1.75
2023-05-06T15:42:24.514Z,2.08
2023-05-06T15:44:53.225Z,1.70
2023-05-06T15:47:22.053Z,1.50
2023-05-06T15:49:54.328Z,1.85
2023-05-06T15:52:24.851Z,2.03
2023-05-06T15:54:58.820Z,3.00
2023-05-06T15:57:25.793Z,3.65
2023-05-06T15:59:54.836Z,3.08
2023-05-06T16:02:27.375Z,2.53
2023-05-06T16:04:59.494Z,2.13
2023-05-06T16:07:31.002Z,2.25
2023-05-06T16:10:00.044Z,1.90
2023-05-06T16:12:26.481Z,2.30
2023-05-06T16:14:57.318Z,2.03
2023-05-06T16:17:26.267Z,1.80
2023-05-06T16:19:52.753Z,2.50
2023-05-06T16:22:21.800Z,2.67
2023-05-06T16:24:53.235Z,2.10
2023-05-06T16:27:27.388Z,2.03
2023-05-06T16:29:58.976Z,1.90
2023-05-06T16:32:25.468Z,2.10
2023-05-06T16:34:54.368Z,1.92
2023-05-06T16:37:23.256Z,1.85
2023-05-06T16:39:55.065Z,1.80
2023-05-06T16:42:26.509Z,1.80
2023-05-06T16:44:53.063Z,2.20
2023-05-06T16:47:24.183Z,1.95
2023-05-06T16:49:50.877Z,2.33
2023-05-06T16:52:19.836Z,1.92
2023-05-06T16:54:48.918Z,2.00
2023-05-06T16:57:18.534Z,2.22
2023-05-06T16:59:47.479Z,2.20
2023-05-06T17:02:18.918Z,2.35
2023-05-06T17:04:47.771Z,1.90
2023-05-06T17:07:16.632Z,2.35
2023-05-06T17:09:43.333Z,2.10
2023-05-06T17:12:14.613Z,2.60
2023-05-06T17:14:42.725Z,2.05
2023-05-06T17:17:11.544Z,1.92
2023-05-06T17:19:45.249Z,2.28
2023-05-06T17:22:14.718Z,2.30
2023-05-06T17:24:43.758Z,2.03
2023-05-06T17:27:15.448Z,2.35
2023-05-06T17:29:42.004Z,2.10
2023-05-06T17:32:08.477Z,2.20
2023-05-06T17:34:37.764Z,2.90
2023-05-06T17:37:08.994Z,2.13
2023-05-06T17:39:36.237Z,1.98
2023-05-06T17:42:03.319Z,2.00
2023-05-06T17:44:33.071Z,2.20
2023-05-06T17:47:01.998Z,2.72
2023-05-06T17:49:28.550Z,2.40
2023-05-06T17:51:59.390Z,2.33
2023-05-06T17:54:34.675Z,2.20
2023-05-06T17:57:03.261Z,2.42
2023-05-06T17:59:32.207Z,2.28
2023-05-06T18:01:58.961Z,2.10
2023-05-06T18:04:28.013Z,2.22
2023-05-06T18:06:57.137Z,2.80
2023-05-06T18:09:28.413Z,2.40
2023-05-06T18:11:57.748Z,2.47
2023-05-06T18:14:29.318Z,2.28
2023-05-06T18:16:56.937Z,1.90
2023-05-06T18:19:23.488Z,2.00
2023-05-06T18:21:49.929Z,2.05
2023-05-06T18:24:17.012Z,2.05
2023-05-06T18:26:50.682Z,2.20
2023-05-06T18:29:22.583Z,2.40
2023-05-06T18:31:53.881Z,2.05
2023-05-06T18:34:20.501Z,2.55
2023-05-06T18:36:47.893Z,2.33
2023-05-06T18:39:14.389Z,2.30
2023-05-06T18:41:44.454Z,2.40
2023-05-06T18:44:13.681Z,2.50
2023-05-06T18:46:44.633Z,2.95
2023-05-06T18:49:14.099Z,2.47
2023-05-06T18:51:44.953Z,2.47
2023-05-06T18:54:14.976Z,2.38
2023-05-06T18:56:46.500Z,2.08
2023-05-06T18:59:18.388Z,2.10
2023-05-06T19:01:47.169Z,2.10
2023-05-06T19:04:17.914Z,2.83
2023-05-06T19:06:51.498Z,2.80
2023-05-06T19:09:18.254Z,2.75
2023-05-06T19:11:47.109Z,2.63
2023-05-06T19:14:13.656Z,2.20
2023-05-06T19:16:42.652Z,1.65
2023-05-06T19:19:09.108Z,1.40
2023-05-06T19:21:36.066Z,1.92
2023-05-06T19:24:04.660Z,1.80
2023-05-06T19:26:33.498Z,2.10
2023-05-06T19:29:04.636Z,1.75
2023-05-06T19:31:34.853Z,2.58
2023-05-06T19:34:04.002Z,1.90
2023-05-06T19:36:30.598Z,1.88
2023-05-06T19:38:57.064Z,1.55
2023-05-06T19:41:26.227Z,1.80
2023-05-06T19:43:52.737Z,1.98
2023-05-06T19:46:21.800Z,1.77
2023-05-06T19:48:48.345Z,1.75
2023-05-06T19:51:19.308Z,2.15
2023-05-06T19:53:50.411Z,2.20
2023-05-06T19:56:20.172Z,1.73
2023-05-06T19:58:50.874Z,2.05
2023-05-06T20:01:19.013Z,2.00
2023-05-06T20:03:45.488Z,1.75
2023-05-06T20:06:12.086Z,2.00
2023-05-06T20:08:40.778Z,2.03
2023-05-06T20:11:07.264Z,1.63
2023-05-06T20:13:35.844Z,1.73
2023-05-06T20:16:05.521Z,1.70
2023-05-06T20:18:32.083Z,1.83
2023-05-06T20:20:58.597Z,1.92
2023-05-06T20:23:25.393Z,2.28
2023-05-06T20:25:51.995Z,1.70
2023-05-06T20:28:21.196Z,1.63
2023-05-06T20:30:51.365Z,1.77
2023-05-06T20:33:18.107Z,1.70
2023-05-06T20:35:44.626Z,2.03
2023-05-06T20:38:11.121Z,1.95
2023-05-06T20:40:40.078Z,1.80
2023-05-06T20:43:08.910Z,2.08
2023-05-06T20:45:37.812Z,2.00
2023-05-06T20:48:09.392Z,2.25
2023-05-06T20:50:36.011Z,1.83
2023-05-06T20:53:05.047Z,1.83
2023-05-06T20:55:33.814Z,2.00
2023-05-06T20:58:05.371Z,1.80
2023-05-06T21:00:31.857Z,1.55
2023-05-06T21:02:58.491Z,2.40
2023-05-06T21:05:25.041Z,1.80
2023-05-06T21:07:56.836Z,1.88
2023-05-06T21:10:23.369Z,1.63
2023-05-06T21:12:50.709Z,2.20
2023-05-06T21:15:19.633Z,1.75
2023-05-06T21:17:48.797Z,1.50
2023-05-06T21:20:20.056Z,1.42
2023-05-06T21:22:48.677Z,1.75
2023-05-06T21:25:17.666Z,1.60
2023-05-06T21:27:46.654Z,1.38
2023-05-06T21:30:15.620Z,1.50
2023-05-06T21:32:44.551Z,1.70
2023-05-06T21:35:11.284Z,1.52
2023-05-06T21:37:42.739Z,1.73
2023-05-06T21:40:12.302Z,1.52
2023-05-06T21:42:38.820Z,1.33
2023-05-06T21:45:08.303Z,1.30
2023-05-06T21:47:37.297Z,1.42
2023-05-06T21:50:06.727Z,1.25
2023-05-06T21:52:33.177Z,1.60
2023-05-06T21:55:05.221Z,1.30
2023-05-06T21:57:32.698Z,1.60
2023-05-06T21:59:59.624Z,1.55
2023-05-06T22:02:26.422Z,1.30
2023-05-06T22:04:53.067Z,1.70
2023-05-06T22:07:19.525Z,1.70
2023-05-06T22:09:48.006Z,1.67
2023-05-06T22:12:15.412Z,1.80
2023-05-06T22:14:44.150Z,1.73
2023-05-06T22:17:10.825Z,1.70
2023-05-06T22:19:38.432Z,1.42
2023-05-06T22:22:05.725Z,1.42
2023-05-06T22:24:32.229Z,1.60
2023-05-06T22:27:03.970Z,1.50
2023-05-06T22:29:35.057Z,1.60
2023-05-06T22:32:05.246Z,1.50
2023-05-06T22:34:36.456Z,1.48
2023-05-06T22:37:07.944Z,1.48
2023-05-06T22:39:37.426Z,1.48
2023-05-06T22:42:03.925Z,1.58
2023-05-06T22:44:32.923Z,1.45
2023-05-06T22:46:59.523Z,1.77
2023-05-06T22:49:28.911Z,1.45
2023-05-06T22:51:57.969Z,1.58
2023-05-06T22:54:30.066Z,1.65
2023-05-06T22:56:59.095Z,1.60
2023-05-06T22:59:25.544Z,1.27
2023-05-06T23:01:52.089Z,1.77
2023-05-06T23:04:18.708Z,1.52
2023-05-06T23:06:50.108Z,1.70
2023-05-06T23:09:19.165Z,1.60
2023-05-06T23:11:46.277Z,1.35
2023-05-06T23:14:13.117Z,1.55
2023-05-06T23:16:39.607Z,1.80
2023-05-06T23:19:14.098Z,1.52
2023-05-06T23:21:41.469Z,1.60
2023-05-06T23:24:10.864Z,1.58
2023-05-06T23:26:39.698Z,1.30
2023-05-06T23:29:08.754Z,1.77
2023-05-06T23:31:37.573Z,1.45
2023-05-06T23:34:04.072Z,1.67
2023-05-06T23:36:30.833Z,1.35
2023-05-06T23:38:57.306Z,1.58
2023-05-06T23:41:24.476Z,1.50
2023-05-06T23:43:51.003Z,1.70
2023-05-06T23:46:17.498Z,5.70
2023-05-06T23:48:48.916Z,2.70
2023-05-06T23:51:15.498Z,1.70
2023-05-06T23:53:45.230Z,1.58
2023-05-06T23:56:11.725Z,3.13
2023-05-06T23:58:38.282Z,1.98
